sensor_id;sensor_type;location;lat;lon;timestamp;P1;durP1;ratioP1;P2;durP2;ratioP2
42832;SDS011;64089;51.478;5.692;2024-03-23T00:55:37;9.10;;;1.98;;
42832;SDS011;64089;51.478;5.692;2024-03-23T00:58:04;8.65;;;3.22;;
42832;SDS011;64089;51.478;5.692;2024-03-23T01:00:29;9.60;;;2.67;;
42832;SDS011;64089;51.478;5.692;2024-03-23T01:02:55;7.53;;;2.47;;
42832;SDS011;64089;51.478;5.692;2024-03-23T01:05:20;12.40;;;2.42;;
42832;SDS011;64089;51.478;5.692;2024-03-23T01:07:46;8.35;;;2.47;;
42832;SDS011;64089;51.478;5.692;2024-03-23T01:10:12;7.47;;;2.70;;
42832;SDS011;64089;51.478;5.692;2024-03-23T01:12:37;11.95;;;3.08;;
42832;SDS011;64089;51.478;5.692;2024-03-23T01:15:03;8.05;;;3.22;;
42832;SDS011;64089;51.478;5.692;2024-03-23T01:17:29;14.05;;;3.80;;
42832;SDS011;64089;51.478;5.692;2024-03-23T01:19:55;14.98;;;3.45;;
42832;SDS011;64089;51.478;5.692;2024-03-23T01:22:20;6.53;;;2.67;;
42832;SDS011;64089;51.478;5.692;2024-03-23T01:24:46;13.13;;;2.97;;
42832;SDS011;64089;51.478;5.692;2024-03-23T01:27:12;11.32;;;3.03;;
42832;SDS011;64089;51.478;5.692;2024-03-23T01:29:37;9.90;;;2.25;;
42832;SDS011;64089;51.478;5.692;2024-03-23T01:32:03;14.32;;;2.65;;
42832;SDS011;64089;51.478;5.692;2024-03-23T01:34:30;11.73;;;2.78;;
42832;SDS011;64089;51.478;5.692;2024-03-23T01:36:55;11.30;;;2.65;;
42832;SDS011;64089;51.478;5.692;2024-03-23T01:39:21;10.77;;;2.85;;
42832;SDS011;64089;51.478;5.692;2024-03-23T01:41:46;18.65;;;3.97;;
42832;SDS011;64089;51.478;5.692;2024-03-23T01:44:12;10.45;;;2.40;;
42832;SDS011;64089;51.478;5.692;2024-03-23T01:46:38;9.98;;;3.28;;
42832;SDS011;64089;51.478;5.692;2024-03-23T01:49:06;12.65;;;3.00;;
42832;SDS011;64089;51.478;5.692;2024-03-23T01:51:32;9.55;;;2.38;;
42832;SDS011;64089;51.478;5.692;2024-03-23T01:53:59;8.90;;;1.98;;
42832;SDS011;64089;51.478;5.692;2024-03-23T01:56:28;10.35;;;3.20;;
42832;SDS011;64089;51.478;5.692;2024-03-23T01:58:55;8.48;;;1.85;;
42832;SDS011;64089;51.478;5.692;2024-03-23T02:01:20;14.00;;;2.42;;
42832;SDS011;64089;51.478;5.692;2024-03-23T02:03:46;7.68;;;2.35;;
42832;SDS011;64089;51.478;5.692;2024-03-23T02:06:12;5.63;;;2.45;;
42832;SDS011;64089;51.478;5.692;2024-03-23T02:08:37;8.18;;;3.05;;
42832;SDS011;64089;51.478;5.692;2024-03-23T02:11:04;17.92;;;3.28;;
42832;SDS011;64089;51.478;5.692;2024-03-23T02:13:29;13.35;;;2.70;;
42832;SDS011;64089;51.478;5.692;2024-03-23T02:15:56;10.02;;;3.03;;
42832;SDS011;64089;51.478;5.692;2024-03-23T02:18:22;12.65;;;3.42;;
42832;SDS011;64089;51.478;5.692;2024-03-23T02:20:48;11.40;;;3.10;;
42832;SDS011;64089;51.478;5.692;2024-03-23T02:23:14;18.50;;;3.10;;
42832;SDS011;64089;51.478;5.692;2024-03-23T02:25:40;5.25;;;2.40;;
42832;SDS011;64089;51.478;5.692;2024-03-23T02:28:06;12.63;;;2.95;;
42832;SDS011;64089;51.478;5.692;2024-03-23T02:30:32;7.70;;;2.28;;
42832;SDS011;64089;51.478;5.692;2024-03-23T02:32:57;10.50;;;2.67;;
42832;SDS011;64089;51.478;5.692;2024-03-23T02:35:23;12.05;;;2.55;;
42832;SDS011;64089;51.478;5.692;2024-03-23T02:37:49;9.52;;;2.80;;
42832;SDS011;64089;51.478;5.692;2024-03-23T02:40:15;16.67;;;2.80;;
42832;SDS011;64089;51.478;5.692;2024-03-23T02:42:41;10.05;;;2.78;;
42832;SDS011;64089;51.478;5.692;2024-03-23T02:45:07;8.30;;;2.05;;
42832;SDS011;64089;51.478;5.692;2024-03-23T02:47:32;7.78;;;3.25;;
42832;SDS011;64089;51.478;5.692;2024-03-23T02:49:58;15.07;;;3.40;;
42832;SDS011;64089;51.478;5.692;2024-03-23T02:52:24;10.45;;;2.80;;
42832;SDS011;64089;51.478;5.692;2024-03-23T02:54:49;13.15;;;3.45;;
42832;SDS011;64089;51.478;5.692;2024-03-23T02:57:15;9.65;;;3.45;;
42832;SDS011;64089;51.478;5.692;2024-03-23T02:59:41;6.47;;;2.55;;
42832;SDS011;64089;51.478;5.692;2024-03-23T03:02:06;9.52;;;2.63;;
42832;SDS011;64089;51.478;5.692;2024-03-23T03:04:32;12.52;;;4.05;;
42832;SDS011;64089;51.478;5.692;2024-03-23T03:06:58;10.70;;;3.00;;
42832;SDS011;64089;51.478;5.692;2024-03-23T03:09:24;11.35;;;3.72;;
42832;SDS011;64089;51.478;5.692;2024-03-23T03:11:49;17.95;;;3.25;;
42832;SDS011;64089;51.478;5.692;2024-03-23T03:14:15;12.48;;;3.08;;
42832;SDS011;64089;51.478;5.692;2024-03-23T03:16:40;5.55;;;2.80;;
42832;SDS011;64089;51.478;5.692;2024-03-23T03:19:06;9.98;;;2.70;;
42832;SDS011;64089;51.478;5.692;2024-03-23T03:21:32;14.25;;;3.10;;
42832;SDS011;64089;51.478;5.692;2024-03-23T03:23:57;5.35;;;2.15;;
42832;SDS011;64089;51.478;5.692;2024-03-23T03:26:23;12.32;;;2.50;;
42832;SDS011;64089;51.478;5.692;2024-03-23T03:28:50;8.68;;;3.08;;
42832;SDS011;64089;51.478;5.692;2024-03-23T03:31:15;12.30;;;2.65;;
42832;SDS011;64089;51.478;5.692;2024-03-23T03:33:41;9.30;;;2.80;;
42832;SDS011;64089;51.478;5.692;2024-03-23T03:36:07;9.20;;;3.55;;
42832;SDS011;64089;51.478;5.692;2024-03-23T03:38:33;11.45;;;2.63;;
42832;SDS011;64089;51.478;5.692;2024-03-23T03:41:03;10.15;;;3.75;;
42832;SDS011;64089;51.478;5.692;2024-03-23T03:43:29;17.92;;;3.47;;
42832;SDS011;64089;51.478;5.692;2024-03-23T03:45:55;11.15;;;2.63;;
42832;SDS011;64089;51.478;5.692;2024-03-23T03:48:21;9.00;;;3.05;;
42832;SDS011;64089;51.478;5.692;2024-03-23T03:50:47;11.95;;;3.00;;
42832;SDS011;64089;51.478;5.692;2024-03-23T03:53:13;11.75;;;2.35;;
42832;SDS011;64089;51.478;5.692;2024-03-23T03:55:38;8.40;;;2.88;;
42832;SDS011;64089;51.478;5.692;2024-03-23T03:58:04;11.98;;;2.13;;
42832;SDS011;64089;51.478;5.692;2024-03-23T04:00:30;16.30;;;3.38;;
42832;SDS011;64089;51.478;5.692;2024-03-23T04:02:56;8.55;;;2.95;;
42832;SDS011;64089;51.478;5.692;2024-03-23T04:05:22;4.80;;;2.45;;
42832;SDS011;64089;51.478;5.692;2024-03-23T04:07:48;3.72;;;2.15;;
42832;SDS011;64089;51.478;5.692;2024-03-23T04:10:13;8.85;;;2.78;;
42832;SDS011;64089;51.478;5.692;2024-03-23T04:12:40;7.95;;;2.53;;
42832;SDS011;64089;51.478;5.692;2024-03-23T04:15:09;6.20;;;1.95;;
42832;SDS011;64089;51.478;5.692;2024-03-23T04:17:35;5.82;;;2.05;;
42832;SDS011;64089;51.478;5.692;2024-03-23T04:20:01;7.82;;;2.88;;
42832;SDS011;64089;51.478;5.692;2024-03-23T04:22:29;13.93;;;2.65;;
42832;SDS011;64089;51.478;5.692;2024-03-23T04:24:55;7.47;;;2.67;;
42832;SDS011;64089;51.478;5.692;2024-03-23T04:27:21;5.43;;;2.45;;
42832;SDS011;64089;51.478;5.692;2024-03-23T04:29:50;8.45;;;2.03;;
42832;SDS011;64089;51.478;5.692;2024-03-23T04:32:17;12.63;;;2.25;;
42832;SDS011;64089;51.478;5.692;2024-03-23T04:34:43;6.43;;;3.03;;
42832;SDS011;64089;51.478;5.692;2024-03-23T04:37:09;14.77;;;2.88;;
42832;SDS011;64089;51.478;5.692;2024-03-23T04:39:35;5.68;;;2.05;;
42832;SDS011;64089;51.478;5.692;2024-03-23T04:42:01;12.65;;;2.97;;
42832;SDS011;64089;51.478;5.692;2024-03-23T04:44:27;5.15;;;2.78;;
42832;SDS011;64089;51.478;5.692;2024-03-23T04:46:53;11.35;;;2.10;;
42832;SDS011;64089;51.478;5.692;2024-03-23T04:49:19;16.25;;;3.17;;
42832;SDS011;64089;51.478;5.692;2024-03-23T04:51:45;11.65;;;2.67;;
42832;SDS011;64089;51.478;5.692;2024-03-23T04:54:14;9.38;;;2.90;;
42832;SDS011;64089;51.478;5.692;2024-03-23T04:56:40;16.02;;;2.85;;
42832;SDS011;64089;51.478;5.692;2024-03-23T04:59:06;6.22;;;2.67;;
42832;SDS011;64089;51.478;5.692;2024-03-23T05:01:32;9.23;;;3.13;;
42832;SDS011;64089;51.478;5.692;2024-03-23T05:03:58;9.20;;;3.03;;
42832;SDS011;64089;51.478;5.692;2024-03-23T05:06:24;10.02;;;4.00;;
42832;SDS011;64089;51.478;5.692;2024-03-23T05:08:51;11.25;;;3.35;;
42832;SDS011;64089;51.478;5.692;2024-03-23T05:11:17;13.23;;;3.30;;
42832;SDS011;64089;51.478;5.692;2024-03-23T05:13:43;14.70;;;3.20;;
42832;SDS011;64089;51.478;5.692;2024-03-23T05:16:09;13.75;;;4.57;;
42832;SDS011;64089;51.478;5.692;2024-03-23T05:18:35;8.65;;;4.47;;
42832;SDS011;64089;51.478;5.692;2024-03-23T05:21:00;8.40;;;3.97;;
42832;SDS011;64089;51.478;5.692;2024-03-23T05:23:26;10.93;;;3.40;;
42832;SDS011;64089;51.478;5.692;2024-03-23T05:25:54;10.68;;;4.28;;
42832;SDS011;64089;51.478;5.692;2024-03-23T05:28:20;14.98;;;5.43;;
42832;SDS011;64089;51.478;5.692;2024-03-23T05:30:52;13.60;;;4.57;;
42832;SDS011;64089;51.478;5.692;2024-03-23T05:33:19;12.52;;;4.35;;
42832;SDS011;64089;51.478;5.692;2024-03-23T05:35:45;14.13;;;5.55;;
42832;SDS011;64089;51.478;5.692;2024-03-23T05:38:11;15.23;;;5.20;;
42832;SDS011;64089;51.478;5.692;2024-03-23T05:40:36;16.77;;;5.35;;
42832;SDS011;64089;51.478;5.692;2024-03-23T05:43:05;21.30;;;6.43;;
42832;SDS011;64089;51.478;5.692;2024-03-23T05:45:34;16.35;;;5.53;;
42832;SDS011;64089;51.478;5.692;2024-03-23T05:47:59;13.90;;;6.28;;
42832;SDS011;64089;51.478;5.692;2024-03-23T05:50:25;18.48;;;5.57;;
42832;SDS011;64089;51.478;5.692;2024-03-23T05:52:51;22.38;;;5.85;;
42832;SDS011;64089;51.478;5.692;2024-03-23T05:55:16;16.27;;;5.50;;
42832;SDS011;64089;51.478;5.692;2024-03-23T05:57:42;15.48;;;5.88;;
42832;SDS011;64089;51.478;5.692;2024-03-23T06:00:08;22.52;;;6.53;;
42832;SDS011;64089;51.478;5.692;2024-03-23T06:02:41;15.73;;;5.43;;
42832;SDS011;64089;51.478;5.692;2024-03-23T06:05:09;14.73;;;5.82;;
42832;SDS011;64089;51.478;5.692;2024-03-23T06:07:37;18.63;;;6.07;;
42832;SDS011;64089;51.478;5.692;2024-03-23T06:10:04;16.23;;;6.70;;
42832;SDS011;64089;51.478;5.692;2024-03-23T06:12:30;14.15;;;5.03;;
42832;SDS011;64089;51.478;5.692;2024-03-23T06:14:56;15.63;;;6.65;;
42832;SDS011;64089;51.478;5.692;2024-03-23T06:17:22;18.23;;;5.40;;
42832;SDS011;64089;51.478;5.692;2024-03-23T06:19:47;11.70;;;5.22;;
42832;SDS011;64089;51.478;5.692;2024-03-23T06:22:14;19.33;;;6.13;;
42832;SDS011;64089;51.478;5.692;2024-03-23T06:24:40;15.60;;;4.88;;
42832;SDS011;64089;51.478;5.692;2024-03-23T06:27:05;17.83;;;4.93;;
42832;SDS011;64089;51.478;5.692;2024-03-23T06:29:31;16.92;;;5.20;;
42832;SDS011;64089;51.478;5.692;2024-03-23T06:31:57;18.65;;;4.45;;
42832;SDS011;64089;51.478;5.692;2024-03-23T06:34:23;15.02;;;4.53;;
42832;SDS011;64089;51.478;5.692;2024-03-23T06:36:48;20.63;;;5.57;;
42832;SDS011;64089;51.478;5.692;2024-03-23T06:39:15;12.05;;;4.68;;
42832;SDS011;64089;51.478;5.692;2024-03-23T06:41:41;11.75;;;4.47;;
42832;SDS011;64089;51.478;5.692;2024-03-23T06:44:07;21.67;;;4.53;;
42832;SDS011;64089;51.478;5.692;2024-03-23T06:46:33;11.98;;;4.30;;
42832;SDS011;64089;51.478;5.692;2024-03-23T06:48:59;17.25;;;3.95;;
42832;SDS011;64089;51.478;5.692;2024-03-23T06:51:24;12.68;;;2.95;;
42832;SDS011;64089;51.478;5.692;2024-03-23T06:53:50;12.90;;;2.75;;
42832;SDS011;64089;51.478;5.692;2024-03-23T06:56:15;9.50;;;3.58;;
42832;SDS011;64089;51.478;5.692;2024-03-23T06:58:41;11.60;;;3.17;;
42832;SDS011;64089;51.478;5.692;2024-03-23T07:01:07;17.45;;;3.22;;
42832;SDS011;64089;51.478;5.692;2024-03-23T07:03:32;11.05;;;2.38;;
42832;SDS011;64089;51.478;5.692;2024-03-23T07:05:58;7.82;;;2.50;;
42832;SDS011;64089;51.478;5.692;2024-03-23T07:08:24;10.07;;;2.78;;
42832;SDS011;64089;51.478;5.692;2024-03-23T07:10:49;11.38;;;3.05;;
42832;SDS011;64089;51.478;5.692;2024-03-23T07:13:15;18.95;;;3.33;;
42832;SDS011;64089;51.478;5.692;2024-03-23T07:15:42;9.93;;;2.78;;
42832;SDS011;64089;51.478;5.692;2024-03-23T07:18:08;15.10;;;3.33;;
42832;SDS011;64089;51.478;5.692;2024-03-23T07:20:33;13.98;;;2.92;;
42832;SDS011;64089;51.478;5.692;2024-03-23T07:22:59;12.75;;;2.65;;
42832;SDS011;64089;51.478;5.692;2024-03-23T07:25:25;8.30;;;2.03;;
42832;SDS011;64089;51.478;5.692;2024-03-23T07:27:53;11.18;;;3.30;;
42832;SDS011;64089;51.478;5.692;2024-03-23T07:30:18;10.88;;;2.60;;
42832;SDS011;64089;51.478;5.692;2024-03-23T07:32:44;9.35;;;3.30;;
42832;SDS011;64089;51.478;5.692;2024-03-23T07:35:10;9.38;;;3.17;;
42832;SDS011;64089;51.478;5.692;2024-03-23T07:37:36;9.70;;;3.05;;
42832;SDS011;64089;51.478;5.692;2024-03-23T07:40:01;5.85;;;2.00;;
42832;SDS011;64089;51.478;5.692;2024-03-23T07:42:27;15.73;;;3.72;;
42832;SDS011;64089;51.478;5.692;2024-03-23T07:44:54;8.88;;;2.70;;
42832;SDS011;64089;51.478;5.692;2024-03-23T07:47:21;10.15;;;2.22;;
42832;SDS011;64089;51.478;5.692;2024-03-23T07:49:47;9.57;;;2.78;;
42832;SDS011;64089;51.478;5.692;2024-03-23T07:52:13;9.60;;;2.50;;
42832;SDS011;64089;51.478;5.692;2024-03-23T07:54:39;5.90;;;3.25;;
42832;SDS011;64089;51.478;5.692;2024-03-23T07:57:04;8.30;;;3.95;;
42832;SDS011;64089;51.478;5.692;2024-03-23T07:59:31;13.57;;;3.22;;
42832;SDS011;64089;51.478;5.692;2024-03-23T08:01:58;15.20;;;3.30;;
42832;SDS011;64089;51.478;5.692;2024-03-23T08:04:24;12.80;;;3.20;;
42832;SDS011;64089;51.478;5.692;2024-03-23T08:06:50;16.85;;;3.28;;
42832;SDS011;64089;51.478;5.692;2024-03-23T08:09:16;12.98;;;2.50;;
42832;SDS011;64089;51.478;5.692;2024-03-23T08:11:42;10.65;;;2.50;;
42832;SDS011;64089;51.478;5.692;2024-03-23T08:14:10;8.73;;;2.58;;
42832;SDS011;64089;51.478;5.692;2024-03-23T08:16:36;10.77;;;2.58;;
42832;SDS011;64089;51.478;5.692;2024-03-23T08:19:01;14.70;;;4.00;;
42832;SDS011;64089;51.478;5.692;2024-03-23T08:21:28;9.52;;;3.55;;
42832;SDS011;64089;51.478;5.692;2024-03-23T08:23:54;9.98;;;2.30;;
42832;SDS011;64089;51.478;5.692;2024-03-23T08:26:19;9.15;;;2.38;;
42832;SDS011;64089;51.478;5.692;2024-03-23T08:28:45;7.32;;;1.88;;
42832;SDS011;64089;51.478;5.692;2024-03-23T08:31:12;10.18;;;2.25;;
42832;SDS011;64089;51.478;5.692;2024-03-23T08:33:38;7.25;;;2.15;;
42832;SDS011;64089;51.478;5.692;2024-03-23T08:36:06;9.80;;;3.20;;
42832;SDS011;64089;51.478;5.692;2024-03-23T08:38:32;4.82;;;1.23;;
42832;SDS011;64089;51.478;5.692;2024-03-23T08:41:05;4.60;;;1.92;;
42832;SDS011;64089;51.478;5.692;2024-03-23T08:43:38;11.15;;;1.95;;
42832;SDS011;64089;51.478;5.692;2024-03-23T08:48:35;9.10;;;1.73;;
42832;SDS011;64089;51.478;5.692;2024-03-23T08:51:05;10.25;;;1.75;;
42832;SDS011;64089;51.478;5.692;2024-03-23T08:53:32;6.63;;;1.50;;
42832;SDS011;64089;51.478;5.692;2024-03-23T08:56:00;12.00;;;2.35;;
42832;SDS011;64089;51.478;5.692;2024-03-23T08:58:27;7.22;;;1.73;;
42832;SDS011;64089;51.478;5.692;2024-03-23T09:00:54;5.00;;;1.50;;
42832;SDS011;64089;51.478;5.692;2024-03-23T09:03:22;10.57;;;1.95;;
42832;SDS011;64089;51.478;5.692;2024-03-23T09:05:48;8.57;;;1.45;;
42832;SDS011;64089;51.478;5.692;2024-03-23T09:08:14;9.10;;;1.45;;
42832;SDS011;64089;51.478;5.692;2024-03-23T09:10:39;4.00;;;0.98;;
42832;SDS011;64089;51.478;5.692;2024-03-23T09:13:06;6.90;;;1.70;;
42832;SDS011;64089;51.478;5.692;2024-03-23T09:15:35;10.75;;;1.75;;
42832;SDS011;64089;51.478;5.692;2024-03-23T09:18:02;4.15;;;1.30;;
42832;SDS011;64089;51.478;5.692;2024-03-23T09:20:28;5.30;;;0.93;;
42832;SDS011;64089;51.478;5.692;2024-03-23T09:22:57;16.65;;;1.08;;
42832;SDS011;64089;51.478;5.692;2024-03-23T09:25:23;7.43;;;1.33;;
42832;SDS011;64089;51.478;5.692;2024-03-23T09:27:48;3.47;;;0.75;;
42832;SDS011;64089;51.478;5.692;2024-03-23T09:30:14;2.05;;;0.88;;
42832;SDS011;64089;51.478;5.692;2024-03-23T09:32:43;3.42;;;0.80;;
42832;SDS011;64089;51.478;5.692;2024-03-23T09:35:09;4.65;;;0.98;;
42832;SDS011;64089;51.478;5.692;2024-03-23T09:37:35;3.80;;;1.15;;
42832;SDS011;64089;51.478;5.692;2024-03-23T09:40:01;8.15;;;1.27;;
42832;SDS011;64089;51.478;5.692;2024-03-23T09:42:28;2.67;;;1.15;;
42832;SDS011;64089;51.478;5.692;2024-03-23T09:44:54;4.47;;;0.85;;
42832;SDS011;64089;51.478;5.692;2024-03-23T09:47:23;2.70;;;1.20;;
42832;SDS011;64089;51.478;5.692;2024-03-23T09:49:50;8.80;;;0.90;;
42832;SDS011;64089;51.478;5.692;2024-03-23T09:52:16;53.20;;;20.55;;
42832;SDS011;64089;51.478;5.692;2024-03-23T09:54:42;37.22;;;14.43;;
42832;SDS011;64089;51.478;5.692;2024-03-23T09:57:07;69.75;;;27.52;;
42832;SDS011;64089;51.478;5.692;2024-03-23T09:59:33;27.52;;;13.60;;
42832;SDS011;64089;51.478;5.692;2024-03-23T10:01:59;5.60;;;1.75;;
42832;SDS011;64089;51.478;5.692;2024-03-23T10:04:38;7.38;;;1.35;;
42832;SDS011;64089;51.478;5.692;2024-03-23T10:07:18;3.67;;;1.25;;
42832;SDS011;64089;51.478;5.692;2024-03-23T10:09:45;5.40;;;1.08;;
42832;SDS011;64089;51.478;5.692;2024-03-23T10:12:12;6.05;;;1.63;;
42832;SDS011;64089;51.478;5.692;2024-03-23T10:14:39;4.65;;;1.35;;
42832;SDS011;64089;51.478;5.692;2024-03-23T10:19:48;5.10;;;1.20;;
42832;SDS011;64089;51.478;5.692;2024-03-23T10:24:45;8.95;;;1.48;;
42832;SDS011;64089;51.478;5.692;2024-03-23T10:27:20;9.80;;;1.50;;
42832;SDS011;64089;51.478;5.692;2024-03-23T10:29:47;4.97;;;0.73;;
42832;SDS011;64089;51.478;5.692;2024-03-23T10:32:17;4.65;;;0.60;;
42832;SDS011;64089;51.478;5.692;2024-03-23T10:34:43;7.45;;;0.90;;
42832;SDS011;64089;51.478;5.692;2024-03-23T10:37:10;3.05;;;1.13;;
42832;SDS011;64089;51.478;5.692;2024-03-23T10:39:37;2.63;;;0.65;;
42832;SDS011;64089;51.478;5.692;2024-03-23T10:42:08;3.65;;;0.73;;
42832;SDS011;64089;51.478;5.692;2024-03-23T10:44:37;6.65;;;0.65;;
42832;SDS011;64089;51.478;5.692;2024-03-23T10:47:04;5.35;;;1.27;;
42832;SDS011;64089;51.478;5.692;2024-03-23T10:49:31;1.50;;;1.00;;
42832;SDS011;64089;51.478;5.692;2024-03-23T10:51:58;11.77;;;1.10;;
42832;SDS011;64089;51.478;5.692;2024-03-23T10:54:27;7.20;;;1.20;;
42832;SDS011;64089;51.478;5.692;2024-03-23T10:57:11;8.10;;;1.08;;
42832;SDS011;64089;51.478;5.692;2024-03-23T10:59:42;4.43;;;0.85;;
42832;SDS011;64089;51.478;5.692;2024-03-23T11:02:09;14.77;;;5.80;;
42832;SDS011;64089;51.478;5.692;2024-03-23T11:04:44;12.45;;;4.72;;
42832;SDS011;64089;51.478;5.692;2024-03-23T11:07:32;20.88;;;8.48;;
42832;SDS011;64089;51.478;5.692;2024-03-23T11:09:58;22.35;;;7.70;;
42832;SDS011;64089;51.478;5.692;2024-03-23T11:15:02;2.40;;;1.10;;
42832;SDS011;64089;51.478;5.692;2024-03-23T11:17:36;8.38;;;1.85;;
42832;SDS011;64089;51.478;5.692;2024-03-23T11:20:02;2.53;;;1.02;;
42832;SDS011;64089;51.478;5.692;2024-03-23T11:25:12;3.50;;;1.15;;
42832;SDS011;64089;51.478;5.692;2024-03-23T11:27:46;3.13;;;1.30;;
42832;SDS011;64089;51.478;5.692;2024-03-23T11:32:48;11.30;;;2.15;;
42832;SDS011;64089;51.478;5.692;2024-03-23T11:38:14;6.78;;;1.77;;
42832;SDS011;64089;51.478;5.692;2024-03-23T11:40:41;11.43;;;2.80;;
42832;SDS011;64089;51.478;5.692;2024-03-23T11:45:45;2.78;;;1.13;;
42832;SDS011;64089;51.478;5.692;2024-03-23T11:55:41;4.07;;;1.33;;
42832;SDS011;64089;51.478;5.692;2024-03-23T11:58:14;4.07;;;0.88;;
42832;SDS011;64089;51.478;5.692;2024-03-23T12:00:41;1.48;;;0.70;;
42832;SDS011;64089;51.478;5.692;2024-03-23T12:03:08;6.03;;;0.70;;
42832;SDS011;64089;51.478;5.692;2024-03-23T12:05:35;3.97;;;0.57;;
42832;SDS011;64089;51.478;5.692;2024-03-23T12:10:43;2.72;;;0.52;;
42832;SDS011;64089;51.478;5.692;2024-03-23T12:13:10;1.45;;;0.85;;
42832;SDS011;64089;51.478;5.692;2024-03-23T12:15:36;5.20;;;0.50;;
42832;SDS011;64089;51.478;5.692;2024-03-23T12:18:08;2.28;;;0.57;;
42832;SDS011;64089;51.478;5.692;2024-03-23T12:20:34;4.10;;;0.70;;
42832;SDS011;64089;51.478;5.692;2024-03-23T12:23:09;2.20;;;0.60;;
42832;SDS011;64089;51.478;5.692;2024-03-23T12:25:38;3.33;;;1.08;;
42832;SDS011;64089;51.478;5.692;2024-03-23T12:28:05;16.88;;;5.18;;
42832;SDS011;64089;51.478;5.692;2024-03-23T12:30:34;8.30;;;3.60;;
42832;SDS011;64089;51.478;5.692;2024-03-23T12:33:04;12.20;;;5.93;;
42832;SDS011;64089;51.478;5.692;2024-03-23T12:35:29;22.67;;;8.93;;
42832;SDS011;64089;51.478;5.692;2024-03-23T12:37:55;2.38;;;1.17;;
42832;SDS011;64089;51.478;5.692;2024-03-23T12:40:21;4.57;;;0.88;;
42832;SDS011;64089;51.478;5.692;2024-03-23T12:42:47;9.88;;;2.05;;
42832;SDS011;64089;51.478;5.692;2024-03-23T12:45:12;8.02;;;1.40;;
42832;SDS011;64089;51.478;5.692;2024-03-23T12:47:38;5.78;;;1.85;;
42832;SDS011;64089;51.478;5.692;2024-03-23T12:50:04;8.75;;;3.50;;
42832;SDS011;64089;51.478;5.692;2024-03-23T12:52:31;6.05;;;2.33;;
42832;SDS011;64089;51.478;5.692;2024-03-23T12:54:57;6.97;;;2.28;;
42832;SDS011;64089;51.478;5.692;2024-03-23T12:57:23;2.45;;;1.58;;
42832;SDS011;64089;51.478;5.692;2024-03-23T12:59:49;2.33;;;1.42;;
42832;SDS011;64089;51.478;5.692;2024-03-23T13:02:17;2.28;;;1.10;;
42832;SDS011;64089;51.478;5.692;2024-03-23T13:04:43;3.63;;;0.80;;
42832;SDS011;64089;51.478;5.692;2024-03-23T13:07:09;2.15;;;1.20;;
42832;SDS011;64089;51.478;5.692;2024-03-23T13:09:35;3.80;;;0.73;;
42832;SDS011;64089;51.478;5.692;2024-03-23T13:12:01;1.08;;;0.45;;
42832;SDS011;64089;51.478;5.692;2024-03-23T13:14:27;0.95;;;0.60;;
42832;SDS011;64089;51.478;5.692;2024-03-23T13:16:52;2.28;;;0.60;;
42832;SDS011;64089;51.478;5.692;2024-03-23T13:19:18;5.63;;;1.20;;
42832;SDS011;64089;51.478;5.692;2024-03-23T13:21:45;4.68;;;0.70;;
42832;SDS011;64089;51.478;5.692;2024-03-23T13:24:10;1.27;;;0.50;;
42832;SDS011;64089;51.478;5.692;2024-03-23T13:26:36;3.15;;;0.55;;
42832;SDS011;64089;51.478;5.692;2024-03-23T13:29:01;3.15;;;0.73;;
42832;SDS011;64089;51.478;5.692;2024-03-23T13:31:27;1.95;;;0.57;;
42832;SDS011;64089;51.478;5.692;2024-03-23T13:33:53;0.43;;;0.43;;
42832;SDS011;64089;51.478;5.692;2024-03-23T13:36:18;6.70;;;1.25;;
42832;SDS011;64089;51.478;5.692;2024-03-23T13:38:44;1.90;;;0.93;;
42832;SDS011;64089;51.478;5.692;2024-03-23T13:41:10;5.53;;;0.88;;
42832;SDS011;64089;51.478;5.692;2024-03-23T13:43:37;5.43;;;0.73;;
42832;SDS011;64089;51.478;5.692;2024-03-23T13:46:03;3.15;;;0.75;;
42832;SDS011;64089;51.478;5.692;2024-03-23T13:48:29;3.38;;;0.88;;
42832;SDS011;64089;51.478;5.692;2024-03-23T13:53:23;1.25;;;0.52;;
42832;SDS011;64089;51.478;5.692;2024-03-23T13:55:49;1.92;;;0.85;;
42832;SDS011;64089;51.478;5.692;2024-03-23T13:58:15;5.15;;;1.08;;
42832;SDS011;64089;51.478;5.692;2024-03-23T14:00:41;2.45;;;1.00;;
42832;SDS011;64089;51.478;5.692;2024-03-23T14:03:10;0.77;;;0.50;;
42832;SDS011;64089;51.478;5.692;2024-03-23T14:05:36;1.52;;;0.47;;
42832;SDS011;64089;51.478;5.692;2024-03-23T14:08:05;1.63;;;0.63;;
42832;SDS011;64089;51.478;5.692;2024-03-23T14:10:31;3.03;;;0.60;;
42832;SDS011;64089;51.478;5.692;2024-03-23T14:12:57;3.53;;;1.05;;
42832;SDS011;64089;51.478;5.692;2024-03-23T14:15:25;10.50;;;2.17;;
42832;SDS011;64089;51.478;5.692;2024-03-23T14:17:51;3.72;;;0.70;;
42832;SDS011;64089;51.478;5.692;2024-03-23T14:20:17;2.40;;;0.90;;
42832;SDS011;64089;51.478;5.692;2024-03-23T14:22:42;3.75;;;1.50;;
42832;SDS011;64089;51.478;5.692;2024-03-23T14:25:08;7.85;;;1.23;;
42832;SDS011;64089;51.478;5.692;2024-03-23T14:27:34;6.95;;;2.55;;
42832;SDS011;64089;51.478;5.692;2024-03-23T14:30:05;5.55;;;1.55;;
42832;SDS011;64089;51.478;5.692;2024-03-23T14:32:31;4.97;;;1.98;;
42832;SDS011;64089;51.478;5.692;2024-03-23T14:35:02;3.08;;;1.23;;
42832;SDS011;64089;51.478;5.692;2024-03-23T14:37:28;3.58;;;1.08;;
42832;SDS011;64089;51.478;5.692;2024-03-23T14:39:57;5.18;;;1.48;;
42832;SDS011;64089;51.478;5.692;2024-03-23T14:42:23;5.50;;;1.15;;
42832;SDS011;64089;51.478;5.692;2024-03-23T14:44:49;11.60;;;1.48;;
42832;SDS011;64089;51.478;5.692;2024-03-23T14:47:16;9.88;;;1.55;;
42832;SDS011;64089;51.478;5.692;2024-03-23T14:49:42;9.18;;;2.10;;
42832;SDS011;64089;51.478;5.692;2024-03-23T14:52:12;1.05;;;0.70;;
42832;SDS011;64089;51.478;5.692;2024-03-23T14:54:38;6.57;;;1.20;;
42832;SDS011;64089;51.478;5.692;2024-03-23T14:57:04;5.10;;;1.10;;
42832;SDS011;64089;51.478;5.692;2024-03-23T14:59:29;5.45;;;0.77;;
42832;SDS011;64089;51.478;5.692;2024-03-23T15:01:55;1.27;;;0.60;;
42832;SDS011;64089;51.478;5.692;2024-03-23T15:04:21;5.13;;;1.75;;
42832;SDS011;64089;51.478;5.692;2024-03-23T15:06:46;7.57;;;1.45;;
42832;SDS011;64089;51.478;5.692;2024-03-23T15:09:14;4.90;;;0.77;;
42832;SDS011;64089;51.478;5.692;2024-03-23T15:11:40;5.18;;;0.70;;
42832;SDS011;64089;51.478;5.692;2024-03-23T15:14:07;5.75;;;0.85;;
42832;SDS011;64089;51.478;5.692;2024-03-23T15:16:32;4.50;;;1.25;;
42832;SDS011;64089;51.478;5.692;2024-03-23T15:18:58;6.05;;;0.85;;
42832;SDS011;64089;51.478;5.692;2024-03-23T15:21:24;5.07;;;1.27;;
42832;SDS011;64089;51.478;5.692;2024-03-23T15:23:49;3.85;;;0.80;;
42832;SDS011;64089;51.478;5.692;2024-03-23T15:26:15;3.97;;;0.88;;
42832;SDS011;64089;51.478;5.692;2024-03-23T15:28:41;2.80;;;1.17;;
42832;SDS011;64089;51.478;5.692;2024-03-23T15:31:27;3.10;;;0.63;;
42832;SDS011;64089;51.478;5.692;2024-03-23T15:33:54;3.80;;;0.77;;
42832;SDS011;64089;51.478;5.692;2024-03-23T15:36:19;8.65;;;1.10;;
42832;SDS011;64089;51.478;5.692;2024-03-23T15:38:45;3.88;;;1.00;;
42832;SDS011;64089;51.478;5.692;2024-03-23T15:41:11;3.05;;;0.90;;
42832;SDS011;64089;51.478;5.692;2024-03-23T15:43:37;3.38;;;0.90;;
42832;SDS011;64089;51.478;5.692;2024-03-23T15:46:03;6.30;;;1.45;;
42832;SDS011;64089;51.478;5.692;2024-03-23T15:48:30;4.63;;;0.60;;
42832;SDS011;64089;51.478;5.692;2024-03-23T15:51:00;1.83;;;1.02;;
42832;SDS011;64089;51.478;5.692;2024-03-23T15:53:30;1.88;;;0.63;;
42832;SDS011;64089;51.478;5.692;2024-03-23T15:56:00;4.63;;;0.90;;
42832;SDS011;64089;51.478;5.692;2024-03-23T15:58:28;3.53;;;0.63;;
42832;SDS011;64089;51.478;5.692;2024-03-23T16:00:57;1.98;;;0.50;;
42832;SDS011;64089;51.478;5.692;2024-03-23T16:03:24;2.30;;;0.57;;
42832;SDS011;64089;51.478;5.692;2024-03-23T16:06:01;3.63;;;0.80;;
42832;SDS011;64089;51.478;5.692;2024-03-23T16:08:28;1.17;;;0.43;;